sensor_id;sensor_type;location;lat;lon;timestamp;P1;durP1;ratioP1;P2;durP2;ratioP2
20984;SDS011;10651;47.552;7.606;2023-11-21T18:08:56;6.63;;;4.90;;
20984;SDS011;10651;47.552;7.606;2023-11-21T18:11:24;5.18;;;4.68;;
20984;SDS011;10651;47.552;7.606;2023-11-21T18:13:51;8.68;;;4.53;;
20984;SDS011;10651;47.552;7.606;2023-11-21T18:16:16;6.03;;;4.63;;
20984;SDS011;10651;47.552;7.606;2023-11-21T18:18:42;5.40;;;4.65;;
20984;SDS011;10651;47.552;7.606;2023-11-21T18:21:08;9.68;;;5.18;;
20984;SDS011;10651;47.552;7.606;2023-11-21T18:23:33;8.02;;;5.20;;
20984;SDS011;10651;47.552;7.606;2023-11-21T18:25:59;5.82;;;5.07;;
20984;SDS011;10651;47.552;7.606;2023-11-21T18:28:25;5.75;;;5.15;;
20984;SDS011;10651;47.552;7.606;2023-11-21T18:30:51;6.45;;;5.07;;
20984;SDS011;10651;47.552;7.606;2023-11-21T18:33:16;6.03;;;4.80;;
20984;SDS011;10651;47.552;7.606;2023-11-21T18:35:47;5.35;;;4.43;;
20984;SDS011;10651;47.552;7.606;2023-11-21T18:38:18;7.32;;;5.10;;
20984;SDS011;10651;47.552;7.606;2023-11-21T18:40:44;7.30;;;5.10;;
20984;SDS011;10651;47.552;7.606;2023-11-21T18:43:10;8.00;;;5.40;;
20984;SDS011;10651;47.552;7.606;2023-11-21T18:45:37;6.00;;;5.07;;
20984;SDS011;10651;47.552;7.606;2023-11-21T18:48:02;11.73;;;5.53;;
20984;SDS011;10651;47.552;7.606;2023-11-21T18:50:29;7.80;;;5.35;;
20984;SDS011;10651;47.552;7.606;2023-11-21T18:52:54;6.90;;;5.50;;
20984;SDS011;10651;47.552;7.606;2023-11-21T18:55:20;7.22;;;5.82;;
20984;SDS011;10651;47.552;7.606;2023-11-21T18:57:46;6.80;;;5.07;;
20984;SDS011;10651;47.552;7.606;2023-11-21T19:00:11;5.97;;;4.88;;
20984;SDS011;10651;47.552;7.606;2023-11-21T19:02:39;7.95;;;6.10;;
20984;SDS011;10651;47.552;7.606;2023-11-21T19:05:05;7.57;;;6.35;;
20984;SDS011;10651;47.552;7.606;2023-11-21T19:07:32;11.50;;;6.63;;
20984;SDS011;10651;47.552;7.606;2023-11-21T19:10:04;9.45;;;7.22;;
20984;SDS011;10651;47.552;7.606;2023-11-21T19:12:33;8.15;;;6.60;;
20984;SDS011;10651;47.552;7.606;2023-11-21T19:15:08;9.98;;;7.57;;
20984;SDS011;10651;47.552;7.606;2023-11-21T19:17:34;9.82;;;8.10;;
20984;SDS011;10651;47.552;7.606;2023-11-21T19:20:00;11.15;;;9.05;;
20984;SDS011;10651;47.552;7.606;2023-11-21T19:22:27;11.20;;;7.82;;
20984;SDS011;10651;47.552;7.606;2023-11-21T19:24:52;11.00;;;9.50;;
20984;SDS011;10651;47.552;7.606;2023-11-21T19:27:18;10.93;;;9.43;;
20984;SDS011;10651;47.552;7.606;2023-11-21T19:29:45;12.95;;;9.35;;
20984;SDS011;10651;47.552;7.606;2023-11-21T19:32:10;14.68;;;9.00;;
20984;SDS011;10651;47.552;7.606;2023-11-21T19:34:36;9.73;;;8.73;;
20984;SDS011;10651;47.552;7.606;2023-11-21T19:37:03;14.73;;;10.25;;
20984;SDS011;10651;47.552;7.606;2023-11-21T19:39:28;12.63;;;9.50;;
20984;SDS011;10651;47.552;7.606;2023-11-21T19:41:54;10.93;;;9.32;;
20984;SDS011;10651;47.552;7.606;2023-11-21T19:44:20;11.43;;;8.82;;
20984;SDS011;10651;47.552;7.606;2023-11-21T19:46:47;9.95;;;8.65;;
20984;SDS011;10651;47.552;7.606;2023-11-21T19:49:12;9.60;;;8.32;;
20984;SDS011;10651;47.552;7.606;2023-11-21T19:51:38;16.08;;;8.70;;
20984;SDS011;10651;47.552;7.606;2023-11-21T19:54:04;11.73;;;8.20;;
20984;SDS011;10651;47.552;7.606;2023-11-21T19:56:30;10.27;;;8.93;;
20984;SDS011;10651;47.552;7.606;2023-11-21T19:58:56;12.60;;;8.85;;
20984;SDS011;10651;47.552;7.606;2023-11-21T20:01:22;10.32;;;8.40;;
20984;SDS011;10651;47.552;7.606;2023-11-21T20:03:47;13.02;;;8.88;;
20984;SDS011;10651;47.552;7.606;2023-11-21T20:06:13;10.20;;;8.68;;
20984;SDS011;10651;47.552;7.606;2023-11-21T20:08:39;10.98;;;8.85;;
20984;SDS011;10651;47.552;7.606;2023-11-21T20:11:05;13.98;;;7.78;;
20984;SDS011;10651;47.552;7.606;2023-11-21T20:13:31;11.65;;;8.50;;
20984;SDS011;10651;47.552;7.606;2023-11-21T20:15:57;12.02;;;7.90;;
20984;SDS011;10651;47.552;7.606;2023-11-21T20:18:23;11.77;;;8.75;;
20984;SDS011;10651;47.552;7.606;2023-11-21T20:20:49;13.60;;;8.30;;
20984;SDS011;10651;47.552;7.606;2023-11-21T20:23:15;13.05;;;8.13;;
20984;SDS011;10651;47.552;7.606;2023-11-21T20:25:43;13.88;;;8.15;;
20984;SDS011;10651;47.552;7.606;2023-11-21T20:28:09;16.85;;;8.40;;
20984;SDS011;10651;47.552;7.606;2023-11-21T20:30:34;9.32;;;7.90;;
20984;SDS011;10651;47.552;7.606;2023-11-21T20:33:00;15.40;;;8.93;;
20984;SDS011;10651;47.552;7.606;2023-11-21T20:35:31;11.95;;;9.50;;
20984;SDS011;10651;47.552;7.606;2023-11-21T20:38:01;11.73;;;9.57;;
20984;SDS011;10651;47.552;7.606;2023-11-21T20:40:28;12.80;;;9.18;;
20984;SDS011;10651;47.552;7.606;2023-11-21T20:42:57;12.57;;;8.57;;
20984;SDS011;10651;47.552;7.606;2023-11-21T20:45:28;13.32;;;9.40;;
20984;SDS011;10651;47.552;7.606;2023-11-21T20:47:55;11.50;;;8.90;;
20984;SDS011;10651;47.552;7.606;2023-11-21T20:50:21;15.68;;;9.63;;
20984;SDS011;10651;47.552;7.606;2023-11-21T20:52:48;13.93;;;9.10;;
20984;SDS011;10651;47.552;7.606;2023-11-21T20:55:14;13.60;;;8.77;;
20984;SDS011;10651;47.552;7.606;2023-11-21T20:57:40;11.85;;;7.38;;
20984;SDS011;10651;47.552;7.606;2023-11-21T21:00:07;12.20;;;8.57;;
20984;SDS011;10651;47.552;7.606;2023-11-21T21:02:39;11.50;;;8.57;;
20984;SDS011;10651;47.552;7.606;2023-11-21T21:05:06;11.85;;;8.60;;
20984;SDS011;10651;47.552;7.606;2023-11-21T21:07:33;10.25;;;7.57;;
20984;SDS011;10651;47.552;7.606;2023-11-21T21:09:59;13.32;;;7.55;;
20984;SDS011;10651;47.552;7.606;2023-11-21T21:12:26;11.40;;;8.10;;
20984;SDS011;10651;47.552;7.606;2023-11-21T21:14:53;9.30;;;7.63;;
20984;SDS011;10651;47.552;7.606;2023-11-21T21:17:21;10.43;;;7.43;;
20984;SDS011;10651;47.552;7.606;2023-11-21T21:19:49;10.23;;;8.18;;
20984;SDS011;10651;47.552;7.606;2023-11-21T21:22:15;11.82;;;7.78;;
20984;SDS011;10651;47.552;7.606;2023-11-21T21:24:41;10.02;;;7.22;;
20984;SDS011;10651;47.552;7.606;2023-11-21T21:27:06;9.88;;;8.20;;
20984;SDS011;10651;47.552;7.606;2023-11-21T21:29:32;13.95;;;9.40;;
20984;SDS011;10651;47.552;7.606;2023-11-21T21:31:58;14.55;;;10.30;;
20984;SDS011;10651;47.552;7.606;2023-11-21T21:34:23;17.88;;;10.60;;
20984;SDS011;10651;47.552;7.606;2023-11-21T21:36:50;15.30;;;10.55;;
20984;SDS011;10651;47.552;7.606;2023-11-21T21:39:16;13.35;;;10.60;;
20984;SDS011;10651;47.552;7.606;2023-11-21T21:41:44;18.20;;;11.52;;
20984;SDS011;10651;47.552;7.606;2023-11-21T21:44:10;17.00;;;10.80;;
20984;SDS011;10651;47.552;7.606;2023-11-21T21:46:36;16.75;;;10.85;;
20984;SDS011;10651;47.552;7.606;2023-11-21T21:49:02;15.23;;;11.40;;
20984;SDS011;10651;47.552;7.606;2023-11-21T21:51:28;15.93;;;12.02;;
20984;SDS011;10651;47.552;7.606;2023-11-21T21:53:55;15.75;;;11.57;;
20984;SDS011;10651;47.552;7.606;2023-11-21T21:56:21;16.55;;;11.73;;
20984;SDS011;10651;47.552;7.606;2023-11-21T21:58:48;20.02;;;11.85;;
20984;SDS011;10651;47.552;7.606;2023-11-21T22:01:17;17.23;;;12.05;;
20984;SDS011;10651;47.552;7.606;2023-11-21T22:03:43;16.05;;;12.13;;
20984;SDS011;10651;47.552;7.606;2023-11-21T22:06:09;19.13;;;12.20;;
20984;SDS011;10651;47.552;7.606;2023-11-21T22:08:37;19.05;;;11.45;;
20984;SDS011;10651;47.552;7.606;2023-11-21T22:11:03;18.75;;;11.82;;
20984;SDS011;10651;47.552;7.606;2023-11-21T22:13:29;17.35;;;11.43;;
20984;SDS011;10651;47.552;7.606;2023-11-21T22:15:55;19.27;;;11.85;;
20984;SDS011;10651;47.552;7.606;2023-11-21T22:18:21;22.10;;;13.10;;
20984;SDS011;10651;47.552;7.606;2023-11-21T22:20:47;20.13;;;11.02;;
20984;SDS011;10651;47.552;7.606;2023-11-21T22:23:12;20.30;;;11.68;;
20984;SDS011;10651;47.552;7.606;2023-11-21T22:25:38;20.83;;;12.20;;
20984;SDS011;10651;47.552;7.606;2023-11-21T22:28:04;23.38;;;12.25;;
20984;SDS011;10651;47.552;7.606;2023-11-21T22:30:33;20.35;;;11.52;;
20984;SDS011;10651;47.552;7.606;2023-11-21T22:32:59;17.85;;;11.60;;
